MDT,Max TemperatureF,Mean TemperatureF,Min TemperatureF,Max Dew PointF,MeanDew PointF,Min DewpointF,Max Humidity, Mean Humidity, Min Humidity, Max Sea Level PressureIn, Mean Sea Level PressureIn, Min Sea Level PressureIn, Max VisibilityMiles, Mean VisibilityMiles, Min VisibilityMiles, Max Wind SpeedMPH, Mean Wind SpeedMPH, Max Gust SpeedMPH,PrecipitationIn, CloudCover, Events, WindDirDegrees
2012-9-1,99,83,67,55,42,33,53,33,12,29.94,29.86,29.77,10,10,10,20,9,26,T,1,,172
2012-9-2,92,78,64,53,46,38,63,40,16,30.06,29.89,29.83,10,10,10,20,9,24,T,1,Rain,287
2012-9-3,94,76,57,50,41,26,65,37,9,29.94,29.88,29.83,10,10,10,23,7,36,0.00,0,,308
2012-9-4,95,72,49,42,33,23,71,40,8,29.93,29.86,29.77,10,10,10,23,10,31,0.00,0,,327
2012-9-5,85,67,48,41,36,27,66,42,17,30.12,29.96,29.85,10,10,6,102,8,168,0.00,0,,81
2012-9-6,93,72,50,36,31,22,50,29,8,30.01,29.85,29.76,10,10,9,28,10,37,0.00,0,,7
2012-9-7,76,61,45,50,44,38,77,52,27,30.27,30.17,30.02,10,10,10,18,5,22,T,4,,3
2012-9-8,85,63,41,42,36,25,83,47,11,30.31,30.21,30.11,10,10,10,15,6,23,0.00,0,,312
2012-9-9,91,68,44,42,35,28,76,43,10,30.19,30.03,29.83,10,10,10,26,11,41,0.00,0,,129
2012-9-10,97,73,49,50,39,30,59,35,11,29.85,29.76,29.68,10,10,7,28,5,32,T,0,,59
2012-9-11,88,71,53,60,48,40,100,60,20,29.99,29.82,29.72,10,10,6,21,7,29,0.15,3,Rain,352
2012-9-12,55,52,49,55,52,50,100,95,89,30.38,30.24,29.99,10,8,2,24,5,28,0.57,8,Rain,102
2012-9-13,75,59,43,54,46,32,100,61,22,30.48,30.40,30.30,10,4,0,10,5,10,0.00,2,Fog,105
2012-9-14,82,63,43,47,41,33,93,56,18,30.41,30.28,30.16,10,10,8,10,7,10,0.00,0,,77
2012-9-15,88,67,45,51,42,33,83,50,16,30.13,30.02,29.92,10,10,10,10,5,12,0.00,0,,93
2012-9-16,89,66,42,43,37,24,89,50,10,30.07,29.94,29.82,10,10,7,22,9,26,0.00,0,,3
2012-9-17,65,55,45,44,41,38,93,67,40,30.16,30.11,30.06,10,10,10,10,4,14,0.01,2,Rain,61
2012-9-18,84,62,40,42,37,29,93,54,14,30.10,30.00,29.91,10,10,9,22,8,31,0.00,0,,313
2012-9-19,81,63,45,39,34,27,76,45,14,30.16,30.01,29.87,10,10,8,18,8,24,0.00,0,,332
2012-9-20,84,62,40,39,35,30,85,50,15,30.07,30.02,29.94,10,10,10,26,9,35,0.00,0,,315
2012-9-21,82,62,42,38,36,31,82,49,15,30.12,30.05,29.98,10,10,10,21,12,35,0.00,0,,309
2012-9-22,79,60,40,,,,,,,,,,,,,20,7,15,0.00,,,
2012-9-23,82,64,45,,,,,,,,,,,,,23,9,20,0.00,,,
2012-9-24,83,67,51,42,41,39,71,47,22,29.94,29.86,29.78,10,10,10,14,4,20,T,1,,63
2012-9-25,77,62,47,50,43,38,86,56,25,30.03,29.90,29.83,10,10,10,14,7,18,T,1,,78
2012-9-26,78,61,44,55,48,41,93,61,28,30.13,30.06,29.95,10,9,2,18,4,24,0.06,1,Rain-Thunderstorm,170
2012-9-27,69,59,48,54,49,46,93,73,52,30.18,30.12,30.07,10,10,7,21,9,25,0.00,4,,121
2012-9-28,76,61,45,51,46,44,100,67,33,30.20,30.11,30.01,10,7,0,16,8,20,0.00,1,Fog,117
2012-9-29,84,67,49,52,45,36,96,57,18,30.13,30.01,29.88,10,8,1,29,9,37,T,2,Rain-Thunderstorm,114
2012-9-30,82,66,50,44,40,34,74,46,18,30.10,29.99,29.94,10,10,10,22,10,28,T,2,,334